Acequia, Idaho
Current Conditions -  °F | °C
As of 3:53 PM on Wednesday 26 Nov 2014 (Local Time) from KBYI Reporting Station
Clear Clear  
Wind Chill: 56°   Ceiling: Unl
Heat Index: 56°   Visibility: 10mi
Dew Point: 35°   Wind: 7mph
Humidity: 45%   Direction: 280°W
Pressure: 30.28"   Gusts: NA
Location:  42.6416°N, 113.637°W
Report Text: KBYI 262253Z AUTO 28006KT 10SM CLR 13/02 A3028 RMK AO2 SLP241 T01330017
Loading
Personal Weather Stations






























Interactive Weather Map New forecast layout! Learn more

10-Day Weather Forecast

Advertisements
Track Severe Weather on mobile